x

Ilm3 - 27 Miles Se Of Wrightsville Beach, Nc (41037) Weather Station

10:00am - Fri 27th Mar 2015 All times are EDT. -4 hours from GMT.

  • Wind
    16mph, 18mph gusts
  • Sea Temp 64°f
  • Air Temp 61°f
  • Sea Pressure 1006.8mb
  • Ilm3 - 27 Miles Se Of Wrightsville Beach, Nc
  • Ilm3 - 27 Miles Se Of Wrightsville Beach, Nc

More Historic Weather Station data

Upgrade to MSW Pro to gain access to the past 30 days of data for over 8000 Wavebouys and Weather Stations around the globe.

Join Pro

Comparision Forecast

View Surf forecast
   
Fri 03/27 10:00am 16 18 mph 1006.8mb 64f 61f
9:00am 13 18 mph 1006.9mb 64f 61f
8:00am 11 16 mph 1007.3mb 64f 61f
7:00am 9 11 mph 1006.9mb 64f 60f
6:00am 11 16 mph 1007.3mb 64f 60f
5:00am 18 22 mph 1007mb 64f 61f
4:00am 11 16 mph 1008mb 64f 63f
3:00am 11 16 mph 1008.9mb 64f 64f
2:00am 13 16 mph 1009.7mb 64f 64f
1:00am 11 16 mph 1010.8mb 64f 64f
12:00am 13 16 mph 1011.3mb 64f 64f
Thu 03/26 11:00pm 9 11 mph 1012mb 64f 64f
10:00pm 9 13 mph 1012.9mb 64f 63f
9:00pm 13 16 mph 1012.7mb 64f 64f
8:00pm 16 20 mph 1012.1mb 64f 64f
7:00pm 13 18 mph 1012.6mb 64f 63f
6:00pm 16 20 mph 1013.2mb 64f 63f
5:00pm 18 20 mph 1013.7mb 64f 64f
4:00pm 16 20 mph 1014.5mb 64f 63f
3:00pm 18 20 mph 1014.8mb 65f 63f
2:00pm 13 16 mph 1015.9mb 65f 62f
1:00pm 18 22 mph 1016.8mb 65f 63f
12:00pm 13 16 mph 1017.1mb 65f 64f
11:00am 16 20 mph 1017.2mb 65f 65f
10:00am 13 20 mph 1017.5mb 65f 65f
9:00am 18 22 mph 1017.2mb 65f 66f
8:00am 22 31 mph 1017.5mb 66f 66f
7:00am 16 20 mph 1018.8mb 66f 65f
6:00am 18 22 mph 1018.5mb 66f 66f
5:00am 18 25 mph 1019.7mb 66f 66f
4:00am 18 22 mph 1020.2mb 66f 66f
3:00am 16 20 mph 1021.2mb 66f 66f
2:00am 16 18 mph 1021.9mb 66f 66f
1:00am 16 18 mph 1022.7mb 66f 66f
12:00am 13 18 mph 1022.7mb 66f 66f
Wed 03/25 11:00pm 11 16 mph 1023.5mb 66f 66f
10:00pm 11 13 mph 1023.9mb 66f 66f
9:00pm 13 16 mph 1024mb 66f 66f
8:00pm 13 18 mph 1023.8mb 66f 66f
7:00pm 13 16 mph 1024mb 67f 66f
6:00pm 11 16 mph 1024.2mb 66f 66f
5:00pm 11 13 mph 1024.3mb 66f 66f
4:00pm 11 16 mph 1024.5mb 67f 66f
3:00pm 11 16 mph 1025.3mb 66f 66f
2:00pm 11 13 mph 1025.5mb 66f 66f
1:00pm 9 13 mph 1025.9mb 66f 66f
12:00pm 9 11 mph 1026.2mb 66f 63f
11:00am 18 20 mph 1026.3mb 65f 61f
10:00am 20 22 mph 1026.2mb 65f 59f
9:00am 20 25 mph 1026.2mb 65f 59f
8:00am 20 25 mph 1025.4mb 65f 59f
7:00am 18 22 mph 1025mb 65f 58f
6:00am 20 25 mph 1024.6mb 65f 58f
5:00am 22 25 mph 1024.3mb 65f 57f
4:00am 22 27 mph 1024.8mb 65f 57f
3:00am 18 22 mph 1025.1mb 65f 56f
2:00am 20 25 mph 1025.9mb 65f 55f
1:00am 18 20 mph 1025.1mb 65f 59f
12:00am 18 20 mph 1025.1mb 65f 60f
Tue 03/24 11:00pm 16 18 mph 1025.1mb 65f 59f
10:00pm 18 22 mph 1025.3mb 65f 58f
9:00pm 18 22 mph 1025mb 65f 59f
8:00pm 18 22 mph 1025mb 65f 58f
7:00pm 16 20 mph 1024.9mb 65f 58f
6:00pm 16 18 mph 1024mb 63f 57f
5:00pm 16 18 mph 1023.6mb 63f 58f
4:00pm 18 20 mph 1023.7mb 63f 57f
3:00pm 18 20 mph 1023.7mb 63f 56f
2:00pm 18 20 mph 1023.5mb 63f 56f
1:00pm 20 22 mph 1024mb 63f 55f
12:00pm 18 20 mph 1024.3mb 63f 55f
11:00am 20 22 mph 1024.6mb 63f 54f
10:00am 18 25 mph 1024.3mb 63f 52f
9:00am 20 25 mph 1024.1mb 63f 53f
8:00am 22 25 mph 1023.2mb 63f 51f
7:00am 22 25 mph 1022.7mb 63f 50f
6:00am 20 25 mph 1021.5mb 63f 50f
5:00am 22 25 mph 1020.7mb 63f 51f
4:00am 20 25 mph 1020.4mb 63f 51f
3:00am 20 25 mph 1021mb 63f 52f
2:00am 20 25 mph 1021mb 63f 51f
1:00am 20 25 mph 1020.9mb 63f 51f
12:00am 25 31 mph 1021mb 63f 50f
Mon 03/23 11:00pm 25 31 mph 1020.5mb 63f 51f
10:00pm 25 29 mph 1020mb 63f 51f
9:00pm 22 29 mph 1020.5mb 63f 52f
8:00pm 27 31 mph 1020.3mb 63f 51f
7:00pm 25 31 mph 1019.8mb 63f 51f
6:00pm 27 34 mph 1018.7mb 63f 51f
5:00pm 29 36 mph 1018.4mb 63f 51f
4:00pm 27 31 mph 1018.2mb 64f 51f